sensor_id;sensor_type;location;lat;lon;timestamp;pressure;altitude;pressure_sealevel;temperature;humidity
3697;BME280;60662;48.810;8.872;2023-07-24T08:55:04;95729.56;;;18.76;87.45
3697;BME280;60662;48.810;8.872;2023-07-24T08:57:13;95732.50;;;18.83;87.06
3697;BME280;60662;48.810;8.872;2023-07-24T08:58:15;95744.16;;;19.00;87.49
3697;BME280;60662;48.810;8.872;2023-07-24T08:59:16;95744.38;;;19.27;87.38
3697;BME280;60662;48.810;8.872;2023-07-24T09:00:18;95748.25;;;19.32;89.52
3697;BME280;60662;48.810;8.872;2023-07-24T09:01:19;95743.97;;;19.59;89.84
3697;BME280;60662;48.810;8.872;2023-07-24T09:02:21;95749.19;;;19.79;88.14
3697;BME280;60662;48.810;8.872;2023-07-24T09:03:23;95742.13;;;19.97;86.63
3697;BME280;60662;48.810;8.872;2023-07-24T09:04:25;95752.50;;;20.09;84.01
3697;BME280;60662;48.810;8.872;2023-07-24T09:05:26;95749.94;;;20.17;83.92
3697;BME280;60662;48.810;8.872;2023-07-24T09:06:28;95754.47;;;20.06;84.58
3697;BME280;60662;48.810;8.872;2023-07-24T09:07:31;95749.03;;;20.08;83.59
3697;BME280;60662;48.810;8.872;2023-07-24T09:08:44;95760.59;;;20.07;83.67
3697;BME280;60662;48.810;8.872;2023-07-24T09:09:47;95762.22;;;20.00;85.08
3697;BME280;60662;48.810;8.872;2023-07-24T09:10:50;95763.03;;;20.18;86.16
3697;BME280;60662;48.810;8.872;2023-07-24T09:11:52;95768.28;;;20.28;84.15
3697;BME280;60662;48.810;8.872;2023-07-24T09:12:55;95773.97;;;20.51;83.58
3697;BME280;60662;48.810;8.872;2023-07-24T09:13:56;95771.03;;;20.54;83.77
3697;BME280;60662;48.810;8.872;2023-07-24T09:15:01;95771.41;;;20.78;83.67
3697;BME280;60662;48.810;8.872;2023-07-24T09:16:04;95767.09;;;20.77;83.30
3697;BME280;60662;48.810;8.872;2023-07-24T09:17:10;95764.28;;;20.78;83.65
3697;BME280;60662;48.810;8.872;2023-07-24T09:18:12;95758.75;;;20.71;84.16
3697;BME280;60662;48.810;8.872;2023-07-24T09:19:20;95768.81;;;20.50;83.82
3697;BME280;60662;48.810;8.872;2023-07-24T09:20:38;95767.53;;;20.36;84.43
3697;BME280;60662;48.810;8.872;2023-07-24T09:21:40;95761.84;;;20.13;84.39
3697;BME280;60662;48.810;8.872;2023-07-24T09:22:53;95770.53;;;20.05;85.35
3697;BME280;60662;48.810;8.872;2023-07-24T09:24:14;95770.03;;;19.92;85.87
3697;BME280;60662;48.810;8.872;2023-07-24T09:25:17;95779.81;;;19.81;86.22
3697;BME280;60662;48.810;8.872;2023-07-24T09:26:18;95774.03;;;19.68;86.27
3697;BME280;60662;48.810;8.872;2023-07-24T09:27:27;95782.84;;;19.58;86.64
3697;BME280;60662;48.810;8.872;2023-07-24T09:28:30;95777.88;;;19.46;86.95
3697;BME280;60662;48.810;8.872;2023-07-24T11:27:54;95660.84;;;17.69;98.59
3697;BME280;60662;48.810;8.872;2023-07-24T11:28:56;95649.44;;;17.68;96.79
3697;BME280;60662;48.810;8.872;2023-07-24T11:29:57;95661.56;;;17.81;96.21
3697;BME280;60662;48.810;8.872;2023-07-24T11:31:02;95688.28;;;17.97;95.75
3697;BME280;60662;48.810;8.872;2023-07-24T11:32:04;95695.09;;;18.00;93.84
3697;BME280;60662;48.810;8.872;2023-07-24T11:33:07;95702.75;;;18.13;94.26
3697;BME280;60662;48.810;8.872;2023-07-24T11:34:09;95707.59;;;18.27;94.37
3697;BME280;60662;48.810;8.872;2023-07-24T11:35:10;95705.94;;;18.36;92.04
3697;BME280;60662;48.810;8.872;2023-07-24T11:36:12;95698.16;;;18.54;92.85
3697;BME280;60662;48.810;8.872;2023-07-24T11:37:14;95702.59;;;18.73;92.82
3697;BME280;60662;48.810;8.872;2023-07-24T11:38:16;95698.94;;;18.74;90.00
3697;BME280;60662;48.810;8.872;2023-07-24T11:39:24;95706.59;;;18.87;88.96
3697;BME280;60662;48.810;8.872;2023-07-24T11:40:45;95702.44;;;18.55;90.14
3697;BME280;60662;48.810;8.872;2023-07-24T11:41:46;95681.59;;;18.62;90.05
3697;BME280;60662;48.810;8.872;2023-07-24T11:42:48;95701.59;;;18.74;90.63
3697;BME280;60662;48.810;8.872;2023-07-24T11:43:50;95707.16;;;18.71;88.34
3697;BME280;60662;48.810;8.872;2023-07-24T11:44:52;95713.56;;;18.78;90.19
3697;BME280;60662;48.810;8.872;2023-07-24T11:45:54;95712.88;;;18.76;90.69
3697;BME280;60662;48.810;8.872;2023-07-24T11:47:03;95720.81;;;18.66;90.49
3697;BME280;60662;48.810;8.872;2023-07-24T11:48:09;95716.50;;;18.65;88.82
3697;BME280;60662;48.810;8.872;2023-07-24T11:49:14;95717.75;;;18.61;90.00
3697;BME280;60662;48.810;8.872;2023-07-24T11:50:17;95719.28;;;18.64;90.90
3697;BME280;60662;48.810;8.872;2023-07-24T11:51:19;95728.75;;;18.56;89.96
3697;BME280;60662;48.810;8.872;2023-07-24T11:52:20;95735.72;;;18.48;91.47
3697;BME280;60662;48.810;8.872;2023-07-24T11:53:29;95727.78;;;18.38;91.58
3697;BME280;60662;48.810;8.872;2023-07-24T11:54:34;95729.47;;;18.39;92.08
3697;BME280;60662;48.810;8.872;2023-07-24T11:55:36;95736.00;;;18.44;90.98
3697;BME280;60662;48.810;8.872;2023-07-24T11:56:38;95741.56;;;18.41;90.71
3697;BME280;60662;48.810;8.872;2023-07-24T11:57:40;95748.09;;;18.37;90.67
3697;BME280;60662;48.810;8.872;2023-07-24T11:58:41;95748.63;;;18.41;91.54
3697;BME280;60662;48.810;8.872;2023-07-24T11:59:43;95754.50;;;18.44;91.44
3697;BME280;60662;48.810;8.872;2023-07-24T12:00:46;95762.97;;;18.38;90.74
3697;BME280;60662;48.810;8.872;2023-07-24T12:01:48;95761.19;;;18.39;90.74
3697;BME280;60662;48.810;8.872;2023-07-24T12:02:50;95752.28;;;18.40;90.44
3697;BME280;60662;48.810;8.872;2023-07-24T12:03:52;95752.53;;;18.37;91.20
3697;BME280;60662;48.810;8.872;2023-07-24T12:04:57;95750.75;;;18.37;91.04
3697;BME280;60662;48.810;8.872;2023-07-24T12:05:59;95741.97;;;18.27;90.87
3697;BME280;60662;48.810;8.872;2023-07-24T12:07:01;95736.66;;;18.27;91.34
3697;BME280;60662;48.810;8.872;2023-07-24T12:08:02;95752.66;;;18.25;89.88
3697;BME280;60662;48.810;8.872;2023-07-24T12:36:28;95764.72;;;17.99;93.81
3697;BME280;60662;48.810;8.872;2023-07-24T12:38:41;95739.03;;;18.10;94.30
3697;BME280;60662;48.810;8.872;2023-07-24T12:39:47;95728.59;;;18.09;93.73
3697;BME280;60662;48.810;8.872;2023-07-24T12:40:48;95745.84;;;18.23;93.29
3697;BME280;60662;48.810;8.872;2023-07-24T12:41:50;95737.38;;;18.29;93.31
3697;BME280;60662;48.810;8.872;2023-07-24T12:42:52;95735.44;;;18.31;92.47
3697;BME280;60662;48.810;8.872;2023-07-24T12:43:54;95738.34;;;18.28;92.04
3697;BME280;60662;48.810;8.872;2023-07-24T12:44:55;95736.84;;;18.35;91.46
3697;BME280;60662;48.810;8.872;2023-07-24T12:45:59;95723.88;;;18.52;92.10
3697;BME280;60662;48.810;8.872;2023-07-24T12:47:00;95718.03;;;18.68;91.71
3697;BME280;60662;48.810;8.872;2023-07-24T12:48:02;95707.44;;;18.77;91.43
3697;BME280;60662;48.810;8.872;2023-07-24T12:49:04;95711.03;;;18.76;90.85
3697;BME280;60662;48.810;8.872;2023-07-24T12:50:05;95705.06;;;18.84;90.59
3697;BME280;60662;48.810;8.872;2023-07-24T12:51:08;95697.91;;;19.04;90.36
3697;BME280;60662;48.810;8.872;2023-07-24T12:52:10;95703.03;;;19.16;90.01
3697;BME280;60662;48.810;8.872;2023-07-24T12:53:12;95694.31;;;19.05;88.91
3697;BME280;60662;48.810;8.872;2023-07-24T12:54:15;95690.38;;;19.09;89.49
3697;BME280;60662;48.810;8.872;2023-07-24T12:55:37;95686.38;;;19.05;89.26
3697;BME280;60662;48.810;8.872;2023-07-24T12:56:39;95693.91;;;19.00;88.92
3697;BME280;60662;48.810;8.872;2023-07-24T13:04:36;95698.00;;;18.65;90.75
3697;BME280;60662;48.810;8.872;2023-07-24T13:05:38;95690.75;;;18.67;89.93
3697;BME280;60662;48.810;8.872;2023-07-24T13:06:40;95695.63;;;18.72;90.65
3697;BME280;60662;48.810;8.872;2023-07-24T13:07:41;95704.94;;;18.66;90.63
3697;BME280;60662;48.810;8.872;2023-07-24T13:08:43;95690.47;;;18.70;90.61
3697;BME280;60662;48.810;8.872;2023-07-24T13:09:44;95690.47;;;18.70;90.91
3697;BME280;60662;48.810;8.872;2023-07-24T13:10:46;95678.50;;;18.76;90.93
3697;BME280;60662;48.810;8.872;2023-07-24T13:11:47;95679.31;;;18.76;91.88
3697;BME280;60662;48.810;8.872;2023-07-24T13:12:52;95675.97;;;18.84;91.24
3697;BME280;60662;48.810;8.872;2023-07-24T13:13:54;95678.47;;;18.86;90.45
3697;BME280;60662;48.810;8.872;2023-07-24T13:14:55;95675.53;;;18.89;90.97
3697;BME280;60662;48.810;8.872;2023-07-24T13:15:56;95667.63;;;18.79;90.62
3697;BME280;60662;48.810;8.872;2023-07-24T13:16:58;95659.81;;;18.77;89.54
3697;BME280;60662;48.810;8.872;2023-07-24T13:18:00;95662.19;;;18.90;89.60
3697;BME280;60662;48.810;8.872;2023-07-24T13:19:18;95662.47;;;18.97;90.09
3697;BME280;60662;48.810;8.872;2023-07-24T13:20:21;95673.59;;;19.01;91.15
3697;BME280;60662;48.810;8.872;2023-07-24T13:21:23;95648.50;;;19.05;89.71
3697;BME280;60662;48.810;8.872;2023-07-24T13:22:24;95656.44;;;19.05;88.50
3697;BME280;60662;48.810;8.872;2023-07-24T13:23:26;95645.72;;;19.06;87.31
3697;BME280;60662;48.810;8.872;2023-07-24T13:24:28;95645.09;;;19.22;86.90
3697;BME280;60662;48.810;8.872;2023-07-24T13:25:29;95647.13;;;19.29;85.17
3697;BME280;60662;48.810;8.872;2023-07-24T13:26:33;95653.84;;;19.51;87.12
3697;BME280;60662;48.810;8.872;2023-07-24T13:27:34;95659.16;;;19.51;86.31
3697;BME280;60662;48.810;8.872;2023-07-24T13:28:39;95651.44;;;19.57;85.47
3697;BME280;60662;48.810;8.872;2023-07-24T13:29:41;95656.88;;;19.84;84.02
3697;BME280;60662;48.810;8.872;2023-07-24T13:30:43;95651.28;;;20.23;82.33
3697;BME280;60662;48.810;8.872;2023-07-24T13:31:45;95653.59;;;20.62;81.83
3697;BME280;60662;48.810;8.872;2023-07-24T13:32:46;95652.03;;;21.04;80.57
3697;BME280;60662;48.810;8.872;2023-07-24T13:33:48;95643.09;;;21.48;79.76
3697;BME280;60662;48.810;8.872;2023-07-24T13:34:49;95643.88;;;21.75;79.59
3697;BME280;60662;48.810;8.872;2023-07-24T13:35:51;95644.78;;;22.08;78.05
3697;BME280;60662;48.810;8.872;2023-07-24T13:36:52;95640.06;;;21.77;75.67
3697;BME280;60662;48.810;8.872;2023-07-24T13:37:54;95638.53;;;21.66;75.95
3697;BME280;60662;48.810;8.872;2023-07-24T13:38:56;95636.19;;;21.55;76.97
3697;BME280;60662;48.810;8.872;2023-07-24T13:39:57;95632.00;;;21.52;76.54
3697;BME280;60662;48.810;8.872;2023-07-24T13:40:59;95632.81;;;22.12;76.89
3697;BME280;60662;48.810;8.872;2023-07-24T13:42:00;95628.00;;;22.32;75.13
3697;BME280;60662;48.810;8.872;2023-07-24T13:43:01;95627.81;;;22.26;76.55
3697;BME280;60662;48.810;8.872;2023-07-24T13:44:04;95619.88;;;22.50;74.66
3697;BME280;60662;48.810;8.872;2023-07-24T13:45:06;95619.69;;;22.52;72.86
3697;BME280;60662;48.810;8.872;2023-07-24T13:46:08;95599.56;;;22.33;71.35
3697;BME280;60662;48.810;8.872;2023-07-24T13:47:10;95611.53;;;22.29;69.51
3697;BME280;60662;48.810;8.872;2023-07-24T13:48:11;95604.56;;;22.36;70.15
3697;BME280;60662;48.810;8.872;2023-07-24T13:49:13;95600.78;;;22.39;71.76
3697;BME280;60662;48.810;8.872;2023-07-24T13:50:14;95605.56;;;22.52;71.54
3697;BME280;60662;48.810;8.872;2023-07-24T13:51:16;95610.69;;;22.78;71.15
3697;BME280;60662;48.810;8.872;2023-07-24T13:52:17;95604.75;;;23.24;71.12
3697;BME280;60662;48.810;8.872;2023-07-24T13:53:19;95594.09;;;23.24;69.66
3697;BME280;60662;48.810;8.872;2023-07-24T13:54:20;95599.19;;;23.65;69.55
3697;BME280;60662;48.810;8.872;2023-07-24T13:55:22;95605.41;;;23.57;68.52
3697;BME280;60662;48.810;8.872;2023-07-24T13:56:23;95607.97;;;23.42;69.45
3697;BME280;60662;48.810;8.872;2023-07-24T13:57:25;95594.78;;;23.18;68.93
3697;BME280;60662;48.810;8.872;2023-07-24T13:58:26;95598.09;;;23.20;67.21
3697;BME280;60662;48.810;8.872;2023-07-24T13:59:28;95603.41;;;23.20;66.90
3697;BME280;60662;48.810;8.872;2023-07-24T14:00:29;95592.16;;;23.01;65.50
3697;BME280;60662;48.810;8.872;2023-07-24T14:01:31;95589.75;;;23.14;66.53
3697;BME280;60662;48.810;8.872;2023-07-24T14:02:33;95592.16;;;22.93;66.92
3697;BME280;60662;48.810;8.872;2023-07-24T14:03:34;95589.81;;;22.98;67.42
3697;BME280;60662;48.810;8.872;2023-07-24T14:04:36;95606.91;;;23.12;65.62
3697;BME280;60662;48.810;8.872;2023-07-24T14:05:38;95610.56;;;23.27;65.72
3697;BME280;60662;48.810;8.872;2023-07-24T14:06:39;95604.09;;;23.53;66.46
3697;BME280;60662;48.810;8.872;2023-07-24T14:07:41;95615.56;;;23.22;66.64
3697;BME280;60662;48.810;8.872;2023-07-24T14:08:43;95606.91;;;22.64;66.49
3697;BME280;60662;48.810;8.872;2023-07-24T14:09:45;95609.22;;;22.34;67.20
3697;BME280;60662;48.810;8.872;2023-07-24T14:10:47;95610.03;;;22.26;68.43
3697;BME280;60662;48.810;8.872;2023-07-24T14:11:48;95601.06;;;22.02;68.10
3697;BME280;60662;48.810;8.872;2023-07-24T14:12:50;95611.84;;;21.93;67.69
3697;BME280;60662;48.810;8.872;2023-07-24T14:13:51;95596.56;;;21.87;68.12
3697;BME280;60662;48.810;8.872;2023-07-24T14:14:52;95591.91;;;21.80;67.80
3697;BME280;60662;48.810;8.872;2023-07-24T14:15:54;95597.41;;;21.79;68.71
3697;BME280;60662;48.810;8.872;2023-07-24T14:16:55;95600.38;;;21.67;68.42
3697;BME280;60662;48.810;8.872;2023-07-24T14:17:57;95608.00;;;21.62;68.89
3697;BME280;60662;48.810;8.872;2023-07-24T14:18:58;95607.16;;;21.62;68.96
3697;BME280;60662;48.810;8.872;2023-07-24T14:20:01;95606.59;;;21.50;68.75
3697;BME280;60662;48.810;8.872;2023-07-24T14:21:03;95589.19;;;21.56;69.16
3697;BME280;60662;48.810;8.872;2023-07-24T14:22:04;95594.22;;;21.59;68.78
3697;BME280;60662;48.810;8.872;2023-07-24T14:23:06;95599.34;;;21.60;69.07
3697;BME280;60662;48.810;8.872;2023-07-24T14:24:09;95596.22;;;21.65;69.61
3697;BME280;60662;48.810;8.872;2023-07-24T14:25:10;95595.41;;;21.81;69.60
3697;BME280;60662;48.810;8.872;2023-07-24T14:26:12;95587.44;;;21.81;68.66
3697;BME280;60662;48.810;8.872;2023-07-24T14:27:13;95590.59;;;21.84;68.84
3697;BME280;60662;48.810;8.872;2023-07-24T14:28:15;95593.25;;;21.93;68.32
3697;BME280;60662;48.810;8.872;2023-07-24T14:29:16;95583.78;;;21.98;68.12
3697;BME280;60662;48.810;8.872;2023-07-24T14:30:18;95583.63;;;21.92;68.11
3697;BME280;60662;48.810;8.872;2023-07-24T14:31:20;95583.13;;;21.96;67.95
3697;BME280;60662;48.810;8.872;2023-07-24T14:32:21;95585.97;;;22.03;67.01
3697;BME280;60662;48.810;8.872;2023-07-24T14:33:23;95589.44;;;22.20;66.94
3697;BME280;60662;48.810;8.872;2023-07-24T14:34:25;95584.97;;;22.37;66.08
3697;BME280;60662;48.810;8.872;2023-07-24T14:35:26;95577.13;;;22.60;65.40
3697;BME280;60662;48.810;8.872;2023-07-24T14:36:28;95575.25;;;22.77;64.65
3697;BME280;60662;48.810;8.872;2023-07-24T14:37:34;95573.97;;;23.13;64.29
3697;BME280;60662;48.810;8.872;2023-07-24T14:38:36;95574.66;;;23.07;63.86
3697;BME280;60662;48.810;8.872;2023-07-24T14:39:37;95568.53;;;22.98;63.54
3697;BME280;60662;48.810;8.872;2023-07-24T14:40:39;95566.88;;;22.97;64.50
3697;BME280;60662;48.810;8.872;2023-07-24T14:41:41;95573.38;;;22.94;64.06
3697;BME280;60662;48.810;8.872;2023-07-24T14:42:42;95558.00;;;23.21;63.21
3697;BME280;60662;48.810;8.872;2023-07-24T14:43:44;95569.44;;;23.30;63.39
3697;BME280;60662;48.810;8.872;2023-07-24T14:44:45;95570.56;;;23.36;63.63
3697;BME280;60662;48.810;8.872;2023-07-24T14:45:47;95570.25;;;23.30;63.89
3697;BME280;60662;48.810;8.872;2023-07-24T14:46:49;95560.00;;;23.19;65.05
3697;BME280;60662;48.810;8.872;2023-07-24T14:47:51;95564.38;;;23.04;66.05
3697;BME280;60662;48.810;8.872;2023-07-24T14:48:52;95571.34;;;23.05;65.85
3697;BME280;60662;48.810;8.872;2023-07-24T14:49:54;95562.50;;;23.04;66.35
3697;BME280;60662;48.810;8.872;2023-07-24T14:50:55;95565.72;;;22.99;65.25
3697;BME280;60662;48.810;8.872;2023-07-24T14:51:57;95558.56;;;22.92;65.05
3697;BME280;60662;48.810;8.872;2023-07-24T14:52:58;95562.22;;;22.99;65.58
3697;BME280;60662;48.810;8.872;2023-07-24T14:53:59;95555.97;;;22.75;64.68
3697;BME280;60662;48.810;8.872;2023-07-24T14:55:01;95552.66;;;22.73;65.34
3697;BME280;60662;48.810;8.872;2023-07-24T14:56:03;95548.50;;;22.71;65.78
3697;BME280;60662;48.810;8.872;2023-07-24T14:57:05;95552.97;;;22.78;65.80
3697;BME280;60662;48.810;8.872;2023-07-24T14:58:25;95546.16;;;22.76;66.42
3697;BME280;60662;48.810;8.872;2023-07-24T14:59:26;95548.50;;;22.71;67.12
3697;BME280;60662;48.810;8.872;2023-07-24T15:00:31;95556.03;;;22.50;66.60
3697;BME280;60662;48.810;8.872;2023-07-24T15:01:32;95546.91;;;22.37;66.73
3697;BME280;60662;48.810;8.872;2023-07-24T15:02:34;95549.91;;;22.33;67.99
3697;BME280;60662;48.810;8.872;2023-07-24T15:03:36;95558.22;;;22.22;67.82
3697;BME280;60662;48.810;8.872;2023-07-24T15:04:38;95553.22;;;22.19;67.64
3697;BME280;60662;48.810;8.872;2023-07-24T15:05:39;95560.19;;;22.20;68.14
3697;BME280;60662;48.810;8.872;2023-07-24T15:06:41;95558.38;;;22.12;67.73
3697;BME280;60662;48.810;8.872;2023-07-24T15:07:42;95565.84;;;22.09;67.65
3697;BME280;60662;48.810;8.872;2023-07-24T15:08:43;95564.03;;;22.01;67.71
3697;BME280;60662;48.810;8.872;2023-07-24T15:09:45;95570.50;;;21.98;67.42
3697;BME280;60662;48.810;8.872;2023-07-24T15:10:47;95573.34;;;21.97;68.03
3697;BME280;60662;48.810;8.872;2023-07-24T15:11:48;95577.31;;;21.84;67.80
3697;BME280;60662;48.810;8.872;2023-07-24T15:12:50;95571.97;;;21.76;68.17
3697;BME280;60662;48.810;8.872;2023-07-24T15:13:51;95574.78;;;21.75;68.36
3697;BME280;60662;48.810;8.872;2023-07-24T15:14:53;95580.78;;;21.77;68.48
3697;BME280;60662;48.810;8.872;2023-07-24T15:15:54;95580.09;;;21.66;68.55
3697;BME280;60662;48.810;8.872;2023-07-24T15:16:56;95582.72;;;21.58;68.33
3697;BME280;60662;48.810;8.872;2023-07-24T16:40:25;95655.81;;;17.46;100.00
